sensor_id;sensor_type;location;lat;lon;timestamp;temperature;humidity
34776;DHT22;20989;52.566;13.346;2023-05-16T00:00:09;23.90;49.90
34776;DHT22;20989;52.566;13.346;2023-05-16T00:03:10;23.90;50.00
34776;DHT22;20989;52.566;13.346;2023-05-16T00:06:11;23.90;50.30
34776;DHT22;20989;52.566;13.346;2023-05-16T00:09:12;23.90;50.40
34776;DHT22;20989;52.566;13.346;2023-05-16T00:12:13;23.90;51.30
34776;DHT22;20989;52.566;13.346;2023-05-16T00:15:13;23.90;51.80
34776;DHT22;20989;52.566;13.346;2023-05-16T00:18:14;23.90;51.80
34776;DHT22;20989;52.566;13.346;2023-05-16T00:21:16;23.90;52.30
34776;DHT22;20989;52.566;13.346;2023-05-16T00:24:16;23.90;52.20
34776;DHT22;20989;52.566;13.346;2023-05-16T00:27:18;23.90;51.40
34776;DHT22;20989;52.566;13.346;2023-05-16T00:30:18;23.90;52.00
34776;DHT22;20989;52.566;13.346;2023-05-16T00:33:19;23.80;52.40
34776;DHT22;20989;52.566;13.346;2023-05-16T00:36:20;23.80;53.60
34776;DHT22;20989;52.566;13.346;2023-05-16T00:39:21;23.90;52.70
34776;DHT22;20989;52.566;13.346;2023-05-16T00:42:22;23.90;56.10
34776;DHT22;20989;52.566;13.346;2023-05-16T00:45:22;23.80;54.50
34776;DHT22;20989;52.566;13.346;2023-05-16T00:48:23;23.90;53.20
34776;DHT22;20989;52.566;13.346;2023-05-16T00:51:24;23.80;53.30
34776;DHT22;20989;52.566;13.346;2023-05-16T00:54:25;23.80;52.60
34776;DHT22;20989;52.566;13.346;2023-05-16T00:57:28;23.90;53.30
34776;DHT22;20989;52.566;13.346;2023-05-16T01:00:29;23.90;53.60
34776;DHT22;20989;52.566;13.346;2023-05-16T01:03:30;23.80;56.00
34776;DHT22;20989;52.566;13.346;2023-05-16T01:06:32;23.90;53.90
34776;DHT22;20989;52.566;13.346;2023-05-16T01:09:33;23.80;55.80
34776;DHT22;20989;52.566;13.346;2023-05-16T01:12:47;23.90;57.00
34776;DHT22;20989;52.566;13.346;2023-05-16T01:16:01;23.80;56.50
34776;DHT22;20989;52.566;13.346;2023-05-16T01:22:51;23.80;58.30
34776;DHT22;20989;52.566;13.346;2023-05-16T01:26:25;23.80;58.10
34776;DHT22;20989;52.566;13.346;2023-05-16T01:29:26;23.70;58.50
34776;DHT22;20989;52.566;13.346;2023-05-16T01:32:27;23.80;54.70
34776;DHT22;20989;52.566;13.346;2023-05-16T01:35:28;23.80;51.60
34776;DHT22;20989;52.566;13.346;2023-05-16T01:38:40;23.70;50.40
34776;DHT22;20989;52.566;13.346;2023-05-16T01:41:54;23.70;49.50
34776;DHT22;20989;52.566;13.346;2023-05-16T01:45:22;23.70;49.30
34776;DHT22;20989;52.566;13.346;2023-05-16T01:48:31;23.70;49.20
34776;DHT22;20989;52.566;13.346;2023-05-16T01:51:34;23.70;49.20
34776;DHT22;20989;52.566;13.346;2023-05-16T01:54:38;23.70;49.10
34776;DHT22;20989;52.566;13.346;2023-05-16T01:57:42;23.70;49.10
34776;DHT22;20989;52.566;13.346;2023-05-16T02:00:44;23.70;48.80
34776;DHT22;20989;52.566;13.346;2023-05-16T02:03:45;23.70;48.60
34776;DHT22;20989;52.566;13.346;2023-05-16T02:06:47;23.70;48.50
34776;DHT22;20989;52.566;13.346;2023-05-16T02:09:48;23.70;48.40
34776;DHT22;20989;52.566;13.346;2023-05-16T02:12:49;23.70;48.30
34776;DHT22;20989;52.566;13.346;2023-05-16T02:15:50;23.70;48.20
34776;DHT22;20989;52.566;13.346;2023-05-16T02:18:52;23.70;48.20
34776;DHT22;20989;52.566;13.346;2023-05-16T02:21:52;23.70;48.30
34776;DHT22;20989;52.566;13.346;2023-05-16T02:24:53;23.70;48.20
34776;DHT22;20989;52.566;13.346;2023-05-16T02:27:54;23.70;48.20
34776;DHT22;20989;52.566;13.346;2023-05-16T02:30:57;23.70;48.20
34776;DHT22;20989;52.566;13.346;2023-05-16T02:33:59;23.70;48.10
34776;DHT22;20989;52.566;13.346;2023-05-16T02:37:00;23.70;48.10
34776;DHT22;20989;52.566;13.346;2023-05-16T02:40:02;23.60;48.10
34776;DHT22;20989;52.566;13.346;2023-05-16T02:43:05;23.60;48.20
34776;DHT22;20989;52.566;13.346;2023-05-16T02:46:19;23.60;48.20
34776;DHT22;20989;52.566;13.346;2023-05-16T02:49:20;23.70;48.10
34776;DHT22;20989;52.566;13.346;2023-05-16T02:52:21;23.60;48.00
34776;DHT22;20989;52.566;13.346;2023-05-16T02:55:21;23.60;48.00
34776;DHT22;20989;52.566;13.346;2023-05-16T02:58:22;23.60;48.00
34776;DHT22;20989;52.566;13.346;2023-05-16T03:01:23;23.60;48.00
34776;DHT22;20989;52.566;13.346;2023-05-16T03:04:23;23.60;47.90
34776;DHT22;20989;52.566;13.346;2023-05-16T03:07:24;23.60;48.10
34776;DHT22;20989;52.566;13.346;2023-05-16T03:10:25;23.60;48.10
34776;DHT22;20989;52.566;13.346;2023-05-16T03:13:26;23.60;48.10
34776;DHT22;20989;52.566;13.346;2023-05-16T03:16:27;23.60;48.10
34776;DHT22;20989;52.566;13.346;2023-05-16T03:19:28;23.60;48.10
34776;DHT22;20989;52.566;13.346;2023-05-16T03:22:29;23.60;47.90
34776;DHT22;20989;52.566;13.346;2023-05-16T03:25:29;23.60;48.10
34776;DHT22;20989;52.566;13.346;2023-05-16T03:28:30;23.60;48.00
34776;DHT22;20989;52.566;13.346;2023-05-16T03:31:31;23.50;48.20
34776;DHT22;20989;52.566;13.346;2023-05-16T03:34:31;23.60;48.20
34776;DHT22;20989;52.566;13.346;2023-05-16T03:37:32;23.50;48.00
34776;DHT22;20989;52.566;13.346;2023-05-16T03:40:33;23.50;47.90
34776;DHT22;20989;52.566;13.346;2023-05-16T03:43:33;23.50;48.00
34776;DHT22;20989;52.566;13.346;2023-05-16T03:46:34;23.50;48.00
34776;DHT22;20989;52.566;13.346;2023-05-16T03:49:35;23.50;47.90
34776;DHT22;20989;52.566;13.346;2023-05-16T03:52:37;23.50;47.90
34776;DHT22;20989;52.566;13.346;2023-05-16T03:55:37;23.50;47.80
34776;DHT22;20989;52.566;13.346;2023-05-16T03:58:38;23.50;47.80
34776;DHT22;20989;52.566;13.346;2023-05-16T04:01:39;23.50;48.30
34776;DHT22;20989;52.566;13.346;2023-05-16T04:04:39;23.50;47.90
34776;DHT22;20989;52.566;13.346;2023-05-16T04:07:40;23.50;48.10
34776;DHT22;20989;52.566;13.346;2023-05-16T04:10:41;23.50;48.20
34776;DHT22;20989;52.566;13.346;2023-05-16T04:13:42;23.50;48.10
34776;DHT22;20989;52.566;13.346;2023-05-16T04:16:42;23.50;48.40
34776;DHT22;20989;52.566;13.346;2023-05-16T04:19:43;23.50;48.20
34776;DHT22;20989;52.566;13.346;2023-05-16T04:22:45;23.50;48.30
34776;DHT22;20989;52.566;13.346;2023-05-16T04:25:46;23.50;48.20
34776;DHT22;20989;52.566;13.346;2023-05-16T04:28:47;23.50;48.10
34776;DHT22;20989;52.566;13.346;2023-05-16T04:31:48;23.50;48.10
34776;DHT22;20989;52.566;13.346;2023-05-16T04:34:48;23.50;48.60
34776;DHT22;20989;52.566;13.346;2023-05-16T04:37:52;23.50;48.90
34776;DHT22;20989;52.566;13.346;2023-05-16T04:40:53;23.50;48.50
34776;DHT22;20989;52.566;13.346;2023-05-16T04:43:54;23.60;48.30
34776;DHT22;20989;52.566;13.346;2023-05-16T04:46:55;23.70;48.30
34776;DHT22;20989;52.566;13.346;2023-05-16T04:49:56;23.70;48.20
34776;DHT22;20989;52.566;13.346;2023-05-16T04:52:57;23.70;48.30
34776;DHT22;20989;52.566;13.346;2023-05-16T04:55:58;23.80;47.40
34776;DHT22;20989;52.566;13.346;2023-05-16T04:58:59;23.80;47.20
34776;DHT22;20989;52.566;13.346;2023-05-16T05:02:00;23.80;47.00
34776;DHT22;20989;52.566;13.346;2023-05-16T05:05:01;23.80;47.00
34776;DHT22;20989;52.566;13.346;2023-05-16T05:08:02;23.80;46.80
34776;DHT22;20989;52.566;13.346;2023-05-16T05:11:03;23.80;47.00
34776;DHT22;20989;52.566;13.346;2023-05-16T05:14:05;23.80;47.00
34776;DHT22;20989;52.566;13.346;2023-05-16T05:17:05;23.90;46.90
34776;DHT22;20989;52.566;13.346;2023-05-16T05:20:06;23.90;46.90
34776;DHT22;20989;52.566;13.346;2023-05-16T05:23:09;23.90;47.00
34776;DHT22;20989;52.566;13.346;2023-05-16T05:26:10;23.90;47.00
34776;DHT22;20989;52.566;13.346;2023-05-16T05:29:11;23.90;47.20
34776;DHT22;20989;52.566;13.346;2023-05-16T05:32:12;23.90;47.20
34776;DHT22;20989;52.566;13.346;2023-05-16T05:35:13;23.90;47.50
34776;DHT22;20989;52.566;13.346;2023-05-16T05:38:15;23.90;47.70
34776;DHT22;20989;52.566;13.346;2023-05-16T05:41:15;23.90;47.50
34776;DHT22;20989;52.566;13.346;2023-05-16T05:44:16;23.90;47.40
34776;DHT22;20989;52.566;13.346;2023-05-16T05:47:17;23.90;47.30
34776;DHT22;20989;52.566;13.346;2023-05-16T05:50:18;23.90;47.60
34776;DHT22;20989;52.566;13.346;2023-05-16T05:53:19;23.90;47.60
34776;DHT22;20989;52.566;13.346;2023-05-16T05:56:19;24.00;47.50
34776;DHT22;20989;52.566;13.346;2023-05-16T05:59:20;23.90;47.70
34776;DHT22;20989;52.566;13.346;2023-05-16T06:02:21;23.90;47.30
34776;DHT22;20989;52.566;13.346;2023-05-16T06:05:22;23.90;47.60
34776;DHT22;20989;52.566;13.346;2023-05-16T06:08:23;23.90;47.60
34776;DHT22;20989;52.566;13.346;2023-05-16T06:11:24;23.90;47.80
34776;DHT22;20989;52.566;13.346;2023-05-16T06:14:24;23.90;48.00
34776;DHT22;20989;52.566;13.346;2023-05-16T06:17:25;23.90;48.40
34776;DHT22;20989;52.566;13.346;2023-05-16T06:20:26;23.90;48.70
34776;DHT22;20989;52.566;13.346;2023-05-16T06:23:26;24.00;49.20
34776;DHT22;20989;52.566;13.346;2023-05-16T06:26:27;24.00;48.80
34776;DHT22;20989;52.566;13.346;2023-05-16T06:29:28;24.00;48.80
34776;DHT22;20989;52.566;13.346;2023-05-16T06:32:28;24.00;48.40
34776;DHT22;20989;52.566;13.346;2023-05-16T06:35:29;23.90;48.50
34776;DHT22;20989;52.566;13.346;2023-05-16T06:38:30;23.90;48.50
34776;DHT22;20989;52.566;13.346;2023-05-16T06:41:31;23.90;48.40
34776;DHT22;20989;52.566;13.346;2023-05-16T06:44:31;23.90;48.50
34776;DHT22;20989;52.566;13.346;2023-05-16T06:47:32;23.90;49.00
34776;DHT22;20989;52.566;13.346;2023-05-16T06:50:33;23.90;49.40
34776;DHT22;20989;52.566;13.346;2023-05-16T06:53:35;23.90;49.40
34776;DHT22;20989;52.566;13.346;2023-05-16T06:56:36;23.90;49.10
34776;DHT22;20989;52.566;13.346;2023-05-16T06:59:36;23.90;49.40
34776;DHT22;20989;52.566;13.346;2023-05-16T07:02:37;24.00;49.40
34776;DHT22;20989;52.566;13.346;2023-05-16T07:05:38;24.10;49.20
34776;DHT22;20989;52.566;13.346;2023-05-16T07:08:38;24.00;49.30
34776;DHT22;20989;52.566;13.346;2023-05-16T07:11:39;24.00;50.10
34776;DHT22;20989;52.566;13.346;2023-05-16T07:14:40;24.00;50.40
34776;DHT22;20989;52.566;13.346;2023-05-16T07:17:42;24.00;50.90
34776;DHT22;20989;52.566;13.346;2023-05-16T07:20:43;24.00;50.80
34776;DHT22;20989;52.566;13.346;2023-05-16T07:23:45;24.10;52.50
34776;DHT22;20989;52.566;13.346;2023-05-16T07:26:46;24.10;51.50
34776;DHT22;20989;52.566;13.346;2023-05-16T07:29:46;24.20;51.50
34776;DHT22;20989;52.566;13.346;2023-05-16T07:32:47;24.10;51.20
34776;DHT22;20989;52.566;13.346;2023-05-16T07:35:48;24.00;54.00
34776;DHT22;20989;52.566;13.346;2023-05-16T07:38:50;24.00;51.60
34776;DHT22;20989;52.566;13.346;2023-05-16T07:41:50;23.90;52.00
34776;DHT22;20989;52.566;13.346;2023-05-16T07:44:51;23.90;51.90
34776;DHT22;20989;52.566;13.346;2023-05-16T07:47:52;23.90;52.30
34776;DHT22;20989;52.566;13.346;2023-05-16T07:50:53;24.00;52.10
34776;DHT22;20989;52.566;13.346;2023-05-16T07:53:54;24.00;52.00
34776;DHT22;20989;52.566;13.346;2023-05-16T07:56:54;24.00;51.60
34776;DHT22;20989;52.566;13.346;2023-05-16T07:59:55;24.00;51.70
34776;DHT22;20989;52.566;13.346;2023-05-16T08:02:56;24.00;52.20
34776;DHT22;20989;52.566;13.346;2023-05-16T08:05:57;24.10;51.80
34776;DHT22;20989;52.566;13.346;2023-05-16T08:08:57;24.00;51.40
34776;DHT22;20989;52.566;13.346;2023-05-16T08:11:58;24.00;51.90
34776;DHT22;20989;52.566;13.346;2023-05-16T08:15:03;24.00;52.20
34776;DHT22;20989;52.566;13.346;2023-05-16T08:18:14;24.00;52.80
34776;DHT22;20989;52.566;13.346;2023-05-16T08:21:15;24.00;52.30
34776;DHT22;20989;52.566;13.346;2023-05-16T08:24:16;24.00;53.20
34776;DHT22;20989;52.566;13.346;2023-05-16T08:27:17;24.00;53.50
34776;DHT22;20989;52.566;13.346;2023-05-16T08:30:17;24.00;53.50
34776;DHT22;20989;52.566;13.346;2023-05-16T08:33:18;24.00;53.30
34776;DHT22;20989;52.566;13.346;2023-05-16T08:36:19;23.90;53.90
34776;DHT22;20989;52.566;13.346;2023-05-16T08:39:20;23.90;54.40
34776;DHT22;20989;52.566;13.346;2023-05-16T08:42:20;23.90;54.30
34776;DHT22;20989;52.566;13.346;2023-05-16T08:45:22;23.90;55.10
34776;DHT22;20989;52.566;13.346;2023-05-16T08:48:23;23.70;55.50
34776;DHT22;20989;52.566;13.346;2023-05-16T08:51:26;23.50;52.70
34776;DHT22;20989;52.566;13.346;2023-05-16T08:54:29;23.70;52.80
34776;DHT22;20989;52.566;13.346;2023-05-16T08:57:31;23.80;52.40
34776;DHT22;20989;52.566;13.346;2023-05-16T09:00:33;23.80;53.30
34776;DHT22;20989;52.566;13.346;2023-05-16T09:03:38;23.80;53.30
34776;DHT22;20989;52.566;13.346;2023-05-16T09:06:39;23.90;53.40
34776;DHT22;20989;52.566;13.346;2023-05-16T09:09:41;23.90;54.10
34776;DHT22;20989;52.566;13.346;2023-05-16T09:12:42;24.00;55.80
34776;DHT22;20989;52.566;13.346;2023-05-16T09:15:43;24.10;53.50
34776;DHT22;20989;52.566;13.346;2023-05-16T09:18:52;24.10;56.60
34776;DHT22;20989;52.566;13.346;2023-05-16T09:21:54;24.10;54.90
34776;DHT22;20989;52.566;13.346;2023-05-16T09:24:58;24.10;58.50
34776;DHT22;20989;52.566;13.346;2023-05-16T09:28:00;24.10;56.30
34776;DHT22;20989;52.566;13.346;2023-05-16T09:31:01;24.10;56.90
34776;DHT22;20989;52.566;13.346;2023-05-16T09:34:02;24.00;55.20
34776;DHT22;20989;52.566;13.346;2023-05-16T09:37:03;23.90;56.10
34776;DHT22;20989;52.566;13.346;2023-05-16T09:40:05;23.90;55.40
34776;DHT22;20989;52.566;13.346;2023-05-16T09:43:06;23.90;55.60
34776;DHT22;20989;52.566;13.346;2023-05-16T09:46:11;23.90;57.30
34776;DHT22;20989;52.566;13.346;2023-05-16T09:49:13;23.90;54.40
34776;DHT22;20989;52.566;13.346;2023-05-16T09:52:15;23.90;53.90
34776;DHT22;20989;52.566;13.346;2023-05-16T09:55:16;23.90;54.10
34776;DHT22;20989;52.566;13.346;2023-05-16T09:58:16;23.80;56.10
34776;DHT22;20989;52.566;13.346;2023-05-16T10:01:18;23.90;55.50
34776;DHT22;20989;52.566;13.346;2023-05-16T10:04:19;24.10;56.90
34776;DHT22;20989;52.566;13.346;2023-05-16T10:07:21;24.10;56.30
34776;DHT22;20989;52.566;13.346;2023-05-16T10:10:23;24.10;57.20
34776;DHT22;20989;52.566;13.346;2023-05-16T10:13:30;24.10;55.70
34776;DHT22;20989;52.566;13.346;2023-05-16T10:16:32;24.00;56.80
34776;DHT22;20989;52.566;13.346;2023-05-16T10:19:37;24.00;56.30
34776;DHT22;20989;52.566;13.346;2023-05-16T10:22:50;24.00;56.20
34776;DHT22;20989;52.566;13.346;2023-05-16T10:25:54;24.10;57.90
34776;DHT22;20989;52.566;13.346;2023-05-16T10:28:57;24.10;56.30
34776;DHT22;20989;52.566;13.346;2023-05-16T10:31:58;24.10;57.20
34776;DHT22;20989;52.566;13.346;2023-05-16T10:34:59;24.20;57.00
34776;DHT22;20989;52.566;13.346;2023-05-16T10:38:12;24.20;57.20
34776;DHT22;20989;52.566;13.346;2023-05-16T10:41:15;24.20;57.50
34776;DHT22;20989;52.566;13.346;2023-05-16T10:44:21;24.10;57.50
34776;DHT22;20989;52.566;13.346;2023-05-16T10:47:32;24.00;57.90
34776;DHT22;20989;52.566;13.346;2023-05-16T10:53:35;23.90;57.50
34776;DHT22;20989;52.566;13.346;2023-05-16T10:56:37;23.90;57.70
34776;DHT22;20989;52.566;13.346;2023-05-16T10:59:50;23.90;57.40
34776;DHT22;20989;52.566;13.346;2023-05-16T11:02:51;23.90;57.20
34776;DHT22;20989;52.566;13.346;2023-05-16T11:05:52;24.00;58.70
34776;DHT22;20989;52.566;13.346;2023-05-16T11:12:05;24.10;58.50
34776;DHT22;20989;52.566;13.346;2023-05-16T11:18:19;24.20;57.30
34776;DHT22;20989;52.566;13.346;2023-05-16T11:21:20;24.20;57.80
34776;DHT22;20989;52.566;13.346;2023-05-16T11:24:28;24.20;57.80
34776;DHT22;20989;52.566;13.346;2023-05-16T11:27:32;24.20;57.30
34776;DHT22;20989;52.566;13.346;2023-05-16T11:30:32;24.20;56.90
34776;DHT22;20989;52.566;13.346;2023-05-16T11:33:34;24.10;57.70
34776;DHT22;20989;52.566;13.346;2023-05-16T11:36:35;24.10;57.50
34776;DHT22;20989;52.566;13.346;2023-05-16T11:39:37;24.10;58.90
34776;DHT22;20989;52.566;13.346;2023-05-16T11:42:40;24.10;58.90
34776;DHT22;20989;52.566;13.346;2023-05-16T11:45:41;24.00;58.90
34776;DHT22;20989;52.566;13.346;2023-05-16T11:48:42;24.00;59.20
34776;DHT22;20989;52.566;13.346;2023-05-16T11:51:44;24.10;58.10
34776;DHT22;20989;52.566;13.346;2023-05-16T11:54:46;24.10;58.20
34776;DHT22;20989;52.566;13.346;2023-05-16T11:57:50;24.10;58.60
34776;DHT22;20989;52.566;13.346;2023-05-16T12:00:51;24.10;57.70
34776;DHT22;20989;52.566;13.346;2023-05-16T12:03:56;24.10;58.50
34776;DHT22;20989;52.566;13.346;2023-05-16T12:06:59;24.10;57.90
34776;DHT22;20989;52.566;13.346;2023-05-16T12:10:07;24.10;57.40
34776;DHT22;20989;52.566;13.346;2023-05-16T12:13:08;24.10;58.20
34776;DHT22;20989;52.566;13.346;2023-05-16T12:16:10;24.10;58.30
34776;DHT22;20989;52.566;13.346;2023-05-16T12:19:11;24.10;58.50
34776;DHT22;20989;52.566;13.346;2023-05-16T12:22:16;24.10;58.20
34776;DHT22;20989;52.566;13.346;2023-05-16T12:25:27;24.20;58.70
34776;DHT22;20989;52.566;13.346;2023-05-16T12:28:32;24.20;57.60
34776;DHT22;20989;52.566;13.346;2023-05-16T12:31:43;24.20;57.30
34776;DHT22;20989;52.566;13.346;2023-05-16T12:34:52;24.20;57.90
34776;DHT22;20989;52.566;13.346;2023-05-16T12:37:54;24.30;58.40
34776;DHT22;20989;52.566;13.346;2023-05-16T12:40:58;24.30;57.60
34776;DHT22;20989;52.566;13.346;2023-05-16T12:44:16;24.30;56.70
34776;DHT22;20989;52.566;13.346;2023-05-16T12:47:17;24.30;56.30
34776;DHT22;20989;52.566;13.346;2023-05-16T12:50:18;24.30;56.50
34776;DHT22;20989;52.566;13.346;2023-05-16T12:53:19;24.30;56.10
34776;DHT22;20989;52.566;13.346;2023-05-16T12:56:20;24.20;56.50
34776;DHT22;20989;52.566;13.346;2023-05-16T12:59:22;24.20;56.60
34776;DHT22;20989;52.566;13.346;2023-05-16T13:02:23;24.30;56.50
34776;DHT22;20989;52.566;13.346;2023-05-16T13:05:24;24.30;56.50
34776;DHT22;20989;52.566;13.346;2023-05-16T13:08:25;24.30;55.70
34776;DHT22;20989;52.566;13.346;2023-05-16T13:11:26;24.30;56.70
34776;DHT22;20989;52.566;13.346;2023-05-16T13:14:27;24.30;57.30
34776;DHT22;20989;52.566;13.346;2023-05-16T13:17:28;24.30;57.30
34776;DHT22;20989;52.566;13.346;2023-05-16T13:20:29;24.20;57.60
34776;DHT22;20989;52.566;13.346;2023-05-16T13:23:30;24.30;57.40
34776;DHT22;20989;52.566;13.346;2023-05-16T13:26:32;24.20;57.50
34776;DHT22;20989;52.566;13.346;2023-05-16T13:29:33;24.30;57.60
34776;DHT22;20989;52.566;13.346;2023-05-16T13:32:34;24.30;57.30
34776;DHT22;20989;52.566;13.346;2023-05-16T13:35:35;24.40;58.30
34776;DHT22;20989;52.566;13.346;2023-05-16T13:38:36;24.40;56.70
34776;DHT22;20989;52.566;13.346;2023-05-16T13:41:36;24.40;57.30
34776;DHT22;20989;52.566;13.346;2023-05-16T13:44:38;24.40;57.60
34776;DHT22;20989;52.566;13.346;2023-05-16T13:47:39;24.40;57.80
34776;DHT22;20989;52.566;13.346;2023-05-16T13:50:40;24.40;57.00
34776;DHT22;20989;52.566;13.346;2023-05-16T13:53:41;24.40;57.30
34776;DHT22;20989;52.566;13.346;2023-05-16T13:56:42;24.40;56.70
34776;DHT22;20989;52.566;13.346;2023-05-16T13:59:43;24.40;56.60
34776;DHT22;20989;52.566;13.346;2023-05-16T14:02:44;24.50;56.80
34776;DHT22;20989;52.566;13.346;2023-05-16T14:05:45;24.50;57.10
34776;DHT22;20989;52.566;13.346;2023-05-16T14:08:48;24.50;57.10
34776;DHT22;20989;52.566;13.346;2023-05-16T14:11:49;24.40;57.10
34776;DHT22;20989;52.566;13.346;2023-05-16T14:14:50;24.40;57.30
34776;DHT22;20989;52.566;13.346;2023-05-16T14:17:52;24.40;57.00
34776;DHT22;20989;52.566;13.346;2023-05-16T14:20:53;24.40;57.40
34776;DHT22;20989;52.566;13.346;2023-05-16T14:23:55;24.50;57.40
34776;DHT22;20989;52.566;13.346;2023-05-16T14:26:56;24.50;57.20
34776;DHT22;20989;52.566;13.346;2023-05-16T14:29:57;24.50;57.00
34776;DHT22;20989;52.566;13.346;2023-05-16T14:32:58;24.60;57.30
34776;DHT22;20989;52.566;13.346;2023-05-16T14:35:59;24.60;57.10
34776;DHT22;20989;52.566;13.346;2023-05-16T14:38:59;24.60;56.70
34776;DHT22;20989;52.566;13.346;2023-05-16T14:42:00;24.60;56.70
34776;DHT22;20989;52.566;13.346;2023-05-16T14:45:01;24.60;56.80
34776;DHT22;20989;52.566;13.346;2023-05-16T14:48:02;24.50;57.30
34776;DHT22;20989;52.566;13.346;2023-05-16T14:51:03;24.50;56.80
34776;DHT22;20989;52.566;13.346;2023-05-16T14:54:06;24.50;57.30
34776;DHT22;20989;52.566;13.346;2023-05-16T14:57:07;24.60;57.10
34776;DHT22;20989;52.566;13.346;2023-05-16T15:00:09;24.50;57.10
34776;DHT22;20989;52.566;13.346;2023-05-16T15:03:11;24.50;57.00
34776;DHT22;20989;52.566;13.346;2023-05-16T15:06:11;24.60;57.20
34776;DHT22;20989;52.566;13.346;2023-05-16T15:09:12;24.70;57.00
34776;DHT22;20989;52.566;13.346;2023-05-16T15:12:13;24.70;57.00
34776;DHT22;20989;52.566;13.346;2023-05-16T15:15:15;24.70;56.90
34776;DHT22;20989;52.566;13.346;2023-05-16T15:18:15;24.80;56.50
34776;DHT22;20989;52.566;13.346;2023-05-16T15:21:16;24.80;56.50
34776;DHT22;20989;52.566;13.346;2023-05-16T15:24:17;24.90;56.50
34776;DHT22;20989;52.566;13.346;2023-05-16T15:27:18;24.90;56.60
34776;DHT22;20989;52.566;13.346;2023-05-16T15:30:18;24.90;56.60
34776;DHT22;20989;52.566;13.346;2023-05-16T15:33:19;24.90;56.70
34776;DHT22;20989;52.566;13.346;2023-05-16T15:36:20;24.80;56.40
34776;DHT22;20989;52.566;13.346;2023-05-16T15:39:21;24.80;56.60
34776;DHT22;20989;52.566;13.346;2023-05-16T15:42:21;24.80;57.80
34776;DHT22;20989;52.566;13.346;2023-05-16T15:45:22;24.80;56.90
34776;DHT22;20989;52.566;13.346;2023-05-16T15:48:24;24.70;57.60
34776;DHT22;20989;52.566;13.346;2023-05-16T15:51:25;24.80;56.50
34776;DHT22;20989;52.566;13.346;2023-05-16T15:54:27;24.80;56.50
34776;DHT22;20989;52.566;13.346;2023-05-16T15:57:29;24.80;56.60
34776;DHT22;20989;52.566;13.346;2023-05-16T16:00:30;24.80;56.30
34776;DHT22;20989;52.566;13.346;2023-05-16T16:03:31;24.80;56.30
34776;DHT22;20989;52.566;13.346;2023-05-16T16:06:32;24.80;56.90
34776;DHT22;20989;52.566;13.346;2023-05-16T16:09:32;24.80;56.70
34776;DHT22;20989;52.566;13.346;2023-05-16T16:12:33;24.80;56.40
34776;DHT22;20989;52.566;13.346;2023-05-16T16:15:34;24.80;56.40
34776;DHT22;20989;52.566;13.346;2023-05-16T16:18:35;24.70;57.00
34776;DHT22;20989;52.566;13.346;2023-05-16T16:21:37;24.70;56.50
34776;DHT22;20989;52.566;13.346;2023-05-16T16:24:38;24.80;56.90
34776;DHT22;20989;52.566;13.346;2023-05-16T16:27:39;24.80;56.40
34776;DHT22;20989;52.566;13.346;2023-05-16T16:30:39;24.70;56.70
34776;DHT22;20989;52.566;13.346;2023-05-16T16:33:40;24.70;56.70
34776;DHT22;20989;52.566;13.346;2023-05-16T16:36:41;24.80;56.40
34776;DHT22;20989;52.566;13.346;2023-05-16T16:39:42;24.80;56.70
34776;DHT22;20989;52.566;13.346;2023-05-16T16:42:43;24.80;56.50
34776;DHT22;20989;52.566;13.346;2023-05-16T16:45:44;24.80;56.00
34776;DHT22;20989;52.566;13.346;2023-05-16T16:48:44;24.80;56.60
34776;DHT22;20989;52.566;13.346;2023-05-16T16:51:45;24.80;56.80
34776;DHT22;20989;52.566;13.346;2023-05-16T16:54:46;24.80;56.70
34776;DHT22;20989;52.566;13.346;2023-05-16T16:57:47;24.80;56.30
34776;DHT22;20989;52.566;13.346;2023-05-16T17:00:48;24.80;56.40
34776;DHT22;20989;52.566;13.346;2023-05-16T17:03:48;24.80;56.10
34776;DHT22;20989;52.566;13.346;2023-05-16T17:06:49;24.90;56.20
34776;DHT22;20989;52.566;13.346;2023-05-16T17:09:50;24.80;56.30
34776;DHT22;20989;52.566;13.346;2023-05-16T17:12:50;24.80;56.20
34776;DHT22;20989;52.566;13.346;2023-05-16T17:15:51;24.80;56.10
34776;DHT22;20989;52.566;13.346;2023-05-16T17:18:52;24.80;56.10
34776;DHT22;20989;52.566;13.346;2023-05-16T17:21:53;24.80;56.60
34776;DHT22;20989;52.566;13.346;2023-05-16T17:24:53;24.70;56.00
34776;DHT22;20989;52.566;13.346;2023-05-16T17:27:55;24.70;56.60
34776;DHT22;20989;52.566;13.346;2023-05-16T17:30:55;24.60;56.10
34776;DHT22;20989;52.566;13.346;2023-05-16T17:33:56;24.70;56.20
34776;DHT22;20989;52.566;13.346;2023-05-16T17:36:57;24.80;55.80
34776;DHT22;20989;52.566;13.346;2023-05-16T17:39:58;24.80;55.90
34776;DHT22;20989;52.566;13.346;2023-05-16T17:42:59;24.80;56.00
34776;DHT22;20989;52.566;13.346;2023-05-16T17:46:00;24.80;56.40
34776;DHT22;20989;52.566;13.346;2023-05-16T17:49:00;24.80;56.30
34776;DHT22;20989;52.566;13.346;2023-05-16T17:52:01;24.80;56.10
34776;DHT22;20989;52.566;13.346;2023-05-16T17:55:04;24.80;55.80
34776;DHT22;20989;52.566;13.346;2023-05-16T17:58:04;24.90;56.10
34776;DHT22;20989;52.566;13.346;2023-05-16T18:01:06;24.90;55.70
34776;DHT22;20989;52.566;13.346;2023-05-16T18:04:09;24.90;55.90
34776;DHT22;20989;52.566;13.346;2023-05-16T18:07:09;24.90;56.20
34776;DHT22;20989;52.566;13.346;2023-05-16T18:10:10;24.80;55.90
34776;DHT22;20989;52.566;13.346;2023-05-16T18:13:11;24.70;55.80
34776;DHT22;20989;52.566;13.346;2023-05-16T18:16:12;24.70;55.20
34776;DHT22;20989;52.566;13.346;2023-05-16T18:19:12;24.60;55.50
34776;DHT22;20989;52.566;13.346;2023-05-16T18:22:13;24.60;55.60
34776;DHT22;20989;52.566;13.346;2023-05-16T18:25:14;24.60;55.90
34776;DHT22;20989;52.566;13.346;2023-05-16T18:28:14;24.50;55.70
34776;DHT22;20989;52.566;13.346;2023-05-16T18:31:15;24.40;55.80
34776;DHT22;20989;52.566;13.346;2023-05-16T18:34:16;24.50;55.60
34776;DHT22;20989;52.566;13.346;2023-05-16T18:37:16;24.40;56.00
34776;DHT22;20989;52.566;13.346;2023-05-16T18:40:17;24.40;56.00
34776;DHT22;20989;52.566;13.346;2023-05-16T18:43:18;24.40;56.30
34776;DHT22;20989;52.566;13.346;2023-05-16T18:46:19;24.40;56.20
34776;DHT22;20989;52.566;13.346;2023-05-16T18:49:19;24.40;55.70
34776;DHT22;20989;52.566;13.346;2023-05-16T18:52:21;24.40;55.80
34776;DHT22;20989;52.566;13.346;2023-05-16T18:55:22;24.30;55.60
34776;DHT22;20989;52.566;13.346;2023-05-16T18:58:22;24.30;56.00
34776;DHT22;20989;52.566;13.346;2023-05-16T19:01:23;24.30;55.80